createdAt,value
2022-10-25T00:00:10.414Z,100869.03
2022-10-25T00:02:41.000Z,100870.34
2022-10-25T00:05:13.523Z,100870.94
2022-10-25T00:07:41.616Z,100868.63
2022-10-25T00:10:10.262Z,100873.09
2022-10-25T00:12:42.818Z,100873.81
2022-10-25T00:15:14.027Z,100875.13
2022-10-25T00:17:42.351Z,100881.50
2022-10-25T00:20:12.917Z,100873.09
2022-10-25T00:22:41.207Z,100875.13
2022-10-25T00:25:10.610Z,100876.00
2022-10-25T00:27:38.696Z,100878.06
2022-10-25T00:30:08.673Z,100876.19
2022-10-25T00:32:37.161Z,100887.19
2022-10-25T00:35:05.440Z,100883.56
2022-10-25T00:37:34.640Z,100883.56
2022-10-25T00:40:02.465Z,100888.34
2022-10-25T00:42:30.302Z,100890.25
2022-10-25T00:45:00.487Z,100884.75
2022-10-25T00:47:41.322Z,100884.59
2022-10-25T00:50:19.265Z,100884.75
2022-10-25T00:52:52.541Z,100885.75
2022-10-25T00:55:22.963Z,100889.53
2022-10-25T00:57:55.432Z,100888.50
2022-10-25T01:00:23.488Z,100891.56
2022-10-25T01:02:51.836Z,100894.31
2022-10-25T01:05:21.010Z,100892.41
2022-10-25T01:07:50.289Z,100899.66
2022-10-25T01:10:18.480Z,100899.97
2022-10-25T01:12:48.561Z,100904.63
2022-10-25T01:15:19.346Z,100902.88
2022-10-25T01:17:54.389Z,100908.91
2022-10-25T01:20:58.859Z,100913.00
2022-10-25T01:23:45.851Z,100916.63
2022-10-25T01:26:48.419Z,100914.91
2022-10-25T01:29:48.083Z,100916.06
2022-10-25T01:32:23.038Z,100917.66
2022-10-25T01:34:57.357Z,100923.00
2022-10-25T01:37:31.998Z,100919.38
2022-10-25T01:40:07.805Z,100914.75
2022-10-25T01:42:41.947Z,100916.63
2022-10-25T01:45:14.298Z,100922.00
2022-10-25T01:47:48.779Z,100915.91
2022-10-25T01:50:22.460Z,100913.88
2022-10-25T01:52:50.352Z,100916.78
2022-10-25T01:55:20.709Z,100924.88
2022-10-25T01:58:04.733Z,100927.50
2022-10-25T02:00:40.053Z,100931.25
2022-10-25T02:03:18.168Z,100928.50
2022-10-25T02:06:00.793Z,100924.88
2022-10-25T02:08:36.312Z,100927.78
2022-10-25T02:11:10.277Z,100925.75
2022-10-25T02:13:48.935Z,100916.63
2022-10-25T02:16:20.625Z,100923.28
2022-10-25T02:18:54.801Z,100923.16
2022-10-25T02:21:25.864Z,100920.53
2022-10-25T02:23:55.675Z,100926.03
2022-10-25T02:26:24.293Z,100927.06
2022-10-25T02:28:52.789Z,100921.56
2022-10-25T02:31:23.193Z,100933.44
2022-10-25T02:33:52.774Z,100924.31
2022-10-25T02:36:22.396Z,100933.44
2022-10-25T02:38:52.461Z,100934.44
2022-10-25T02:45:19.901Z,100938.78
2022-10-25T02:47:47.929Z,100937.66
2022-10-25T02:50:17.443Z,100944.75
2022-10-25T02:52:45.535Z,100941.28
2022-10-25T02:55:13.462Z,100944.03
2022-10-25T02:57:41.332Z,100940.25
2022-10-25T03:02:44.074Z,100953.16
2022-10-25T03:05:12.016Z,100943.88
2022-10-25T03:07:41.204Z,100951.97
2022-10-25T03:10:09.805Z,100951.09
2022-10-25T03:12:37.666Z,100955.75
2022-10-25T03:15:06.240Z,100966.56
2022-10-25T03:17:34.170Z,100961.06
2022-10-25T03:20:01.910Z,100957.47
2022-10-25T03:22:29.689Z,100957.47
2022-10-25T03:24:58.879Z,100962.66
2022-10-25T03:27:26.767Z,100958.31
2022-10-25T03:29:54.894Z,100961.94
2022-10-25T03:32:22.795Z,100955.56
2022-10-25T03:34:50.573Z,100959.19
2022-10-25T03:37:18.359Z,100960.06
2022-10-25T03:39:46.111Z,100963.69
2022-10-25T03:42:15.559Z,100966.28
2022-10-25T03:44:43.348Z,100973.81
2022-10-25T03:47:11.237Z,100970.03
2022-10-25T03:49:39.140Z,100971.94
2022-10-25T03:52:07.318Z,100975.53
2022-10-25T03:54:35.936Z,100971.94
2022-10-25T03:57:04.356Z,100979.31
2022-10-25T03:59:33.517Z,100980.19
2022-10-25T04:02:02.086Z,100994.81
2022-10-25T04:04:30.006Z,100993.06
2022-10-25T04:06:57.927Z,100995.81
2022-10-25T04:09:25.804Z,100987.72
2022-10-25T04:11:53.721Z,100994.94
2022-10-25T04:14:21.772Z,100998.56
2022-10-25T04:16:51.051Z,100999.44
2022-10-25T04:19:19.146Z,100992.34
2022-10-25T04:21:47.648Z,100999.75
2022-10-25T04:24:15.468Z,101006.97
2022-10-25T04:26:43.321Z,101004.22
2022-10-25T04:29:12.102Z,101006.81
2022-10-25T04:31:39.911Z,101010.56
2022-10-25T04:34:09.084Z,101005.81
2022-10-25T04:36:36.973Z,101006.81
2022-10-25T04:39:04.889Z,101009.56
2022-10-25T04:41:33.073Z,101010.44
2022-10-25T04:44:00.854Z,101014.06
2022-10-25T04:46:28.669Z,101016.81
2022-10-25T04:48:56.468Z,101019.41
2022-10-25T04:51:25.696Z,101021.16
2022-10-25T04:53:54.420Z,101022.16
2022-10-25T04:56:22.476Z,101027.50
2022-10-25T04:58:50.286Z,101025.78
2022-10-25T05:01:19.537Z,101030.25
2022-10-25T05:03:47.565Z,101031.13
2022-10-25T05:06:18.152Z,101030.13
2022-10-25T05:08:49.494Z,101018.25
2022-10-25T05:11:19.033Z,101021.00
2022-10-25T05:13:47.865Z,101021.00
2022-10-25T05:16:20.271Z,101030.13
2022-10-25T05:18:48.620Z,101026.66
2022-10-25T05:21:17.408Z,101040.25
2022-10-25T05:23:45.381Z,101039.38
2022-10-25T05:26:17.019Z,101042.81
2022-10-25T05:28:47.056Z,101043.88
2022-10-25T05:31:16.622Z,101041.13
2022-10-25T05:33:45.993Z,101049.38
2022-10-25T05:36:15.079Z,101036.63
2022-10-25T05:38:43.668Z,101044.00
2022-10-25T05:41:13.121Z,101044.88
2022-10-25T05:43:42.961Z,101045.75
2022-10-25T05:46:13.413Z,101042.13
2022-10-25T05:48:45.796Z,101054.28
2022-10-25T05:51:33.343Z,101058.78
2022-10-25T05:54:03.677Z,101061.66
2022-10-25T05:56:33.088Z,101062.69
2022-10-25T05:59:08.853Z,101066.16
2022-10-25T06:01:37.716Z,101073.69
2022-10-25T06:04:06.343Z,101076.59
2022-10-25T06:06:34.691Z,101084.81
2022-10-25T06:09:03.014Z,101091.34
2022-10-25T06:11:31.527Z,101096.00
2022-10-25T06:13:59.355Z,101093.41
2022-10-25T06:16:28.902Z,101097.03
2022-10-25T06:18:56.976Z,101099.91
2022-10-25T06:21:27.328Z,101094.41
2022-10-25T06:23:55.594Z,101100.06
2022-10-25T06:26:25.413Z,101102.66
2022-10-25T06:28:55.021Z,101106.41
2022-10-25T06:31:23.430Z,101112.94
2022-10-25T06:33:53.088Z,101110.19
2022-10-25T06:36:22.629Z,101112.03
2022-10-25T06:38:51.242Z,101116.66
2022-10-25T06:41:20.857Z,101118.44
2022-10-25T06:43:49.369Z,101113.91
2022-10-25T06:46:21.834Z,101129.44
2022-10-25T06:48:50.038Z,101131.59
2022-10-25T06:51:19.948Z,101142.28
2022-10-25T06:53:47.834Z,101140.53
2022-10-25T06:56:15.781Z,101142.41
2022-10-25T06:58:43.893Z,101150.66
2022-10-25T07:01:13.255Z,101152.41
2022-10-25T07:03:41.558Z,101155.16
2022-10-25T07:06:11.056Z,101156.94
2022-10-25T07:08:41.828Z,101166.06
2022-10-25T07:11:15.414Z,101163.16
2022-10-25T07:13:43.493Z,101174.31
2022-10-25T07:16:14.301Z,101174.03
2022-10-25T07:18:42.818Z,101177.66
2022-10-25T07:21:13.116Z,101181.97
2022-10-25T07:23:43.095Z,101184.56
2022-10-25T07:26:12.739Z,101179.94
2022-10-25T07:28:41.426Z,101189.06
2022-10-25T07:31:09.266Z,101191.81
2022-10-25T07:33:37.127Z,101193.53
2022-10-25T07:36:10.661Z,101196.16
2022-10-25T07:38:39.602Z,101183.41
2022-10-25T07:41:09.493Z,101187.72
2022-10-25T07:43:39.101Z,101188.59
2022-10-25T07:46:07.898Z,101188.59
2022-10-25T07:48:36.673Z,101184.16
2022-10-25T07:51:05.871Z,101197.72
2022-10-25T07:53:33.844Z,101196.84
2022-10-25T07:56:01.704Z,101196.84
2022-10-25T07:58:30.936Z,101203.09
2022-10-25T08:01:03.389Z,101200.34
2022-10-25T08:03:32.188Z,101203.41
2022-10-25T08:06:00.676Z,101204.09
2022-10-25T08:08:29.037Z,101210.47
2022-10-25T08:10:57.712Z,101208.59
2022-10-25T08:13:25.523Z,101210.31
2022-10-25T08:15:56.446Z,101207.28
2022-10-25T08:18:25.243Z,101201.94
2022-10-25T08:21:08.285Z,101201.78
2022-10-25T08:23:36.257Z,101208.00
2022-10-25T08:26:04.515Z,101200.47
2022-10-25T08:28:32.680Z,101202.94
2022-10-25T08:31:02.113Z,101204.53
2022-10-25T08:33:30.109Z,101206.25
2022-10-25T08:36:00.897Z,101213.19
2022-10-25T08:38:28.657Z,101200.31
2022-10-25T08:41:04.202Z,101208.97
2022-10-25T08:43:53.278Z,101214.50
2022-10-25T08:46:27.234Z,101205.06
2022-10-25T08:49:11.582Z,101203.06
2022-10-25T08:51:42.785Z,101210.13
2022-10-25T08:54:22.596Z,101207.94
2022-10-25T08:57:10.781Z,101210.41
2022-10-25T08:59:44.093Z,101211.13
2022-10-25T09:02:19.508Z,101214.16
2022-10-25T09:04:47.503Z,101220.38
2022-10-25T09:07:30.096Z,101214.09
2022-10-25T09:10:10.324Z,101216.56
2022-10-25T09:12:43.960Z,101220.59
2022-10-25T09:15:21.051Z,101231.88
2022-10-25T09:17:52.019Z,101225.09
2022-10-25T09:20:22.036Z,101235.66
2022-10-25T09:22:55.385Z,101232.47
2022-10-25T09:25:31.087Z,101234.75
2022-10-25T09:28:01.128Z,101237.19
2022-10-25T09:30:31.255Z,101244.31
2022-10-25T09:33:04.311Z,101247.75
2022-10-25T09:35:42.089Z,101251.22
2022-10-25T09:38:16.997Z,101254.72
2022-10-25T09:40:48.214Z,101261.09
2022-10-25T09:43:19.818Z,101253.56
2022-10-25T09:45:51.390Z,101247.84
2022-10-25T09:48:28.565Z,101260.47
2022-10-25T09:51:04.050Z,101265.84
2022-10-25T09:53:34.359Z,101268.44
2022-10-25T09:56:05.862Z,101266.41
2022-10-25T09:58:36.394Z,101272.75
2022-10-25T10:01:07.592Z,101273.50
2022-10-25T10:03:37.913Z,101280.88
2022-10-25T10:06:17.946Z,101284.38
2022-10-25T10:08:51.876Z,101279.00
2022-10-25T10:11:21.543Z,101278.13
2022-10-25T10:13:54.847Z,101291.75
2022-10-25T10:16:26.959Z,101291.03
2022-10-25T10:19:14.763Z,101293.25
2022-10-25T10:21:44.717Z,101286.72
2022-10-25T10:24:18.594Z,101292.78
2022-10-25T10:26:51.615Z,101297.56
2022-10-25T10:29:23.105Z,101301.91
2022-10-25T10:31:53.203Z,101293.50
2022-10-25T10:34:28.379Z,101296.13
2022-10-25T10:37:04.238Z,101300.28
2022-10-25T10:39:32.557Z,101298.41
2022-10-25T10:42:03.366Z,101299.84
2022-10-25T10:44:34.686Z,101305.03
2022-10-25T10:47:10.867Z,101311.13
2022-10-25T10:49:42.695Z,101296.00
2022-10-25T10:52:28.499Z,101304.84
2022-10-25T10:54:56.911Z,101300.59
2022-10-25T10:57:32.308Z,101301.72
2022-10-25T11:00:01.382Z,101301.56
2022-10-25T11:02:41.491Z,101291.81
2022-10-25T11:05:22.921Z,101310.84
2022-10-25T11:07:56.997Z,101306.91
2022-10-25T11:10:27.593Z,101302.97
2022-10-25T11:13:20.219Z,101302.09
2022-10-25T11:16:18.630Z,101291.06
2022-10-25T11:18:54.735Z,101301.31
2022-10-25T11:21:40.297Z,101305.34
2022-10-25T11:24:15.970Z,101303.16
2022-10-25T11:26:54.263Z,101307.31
2022-10-25T11:29:39.708Z,101300.63
2022-10-25T11:32:43.158Z,101306.16
2022-10-25T11:35:26.269Z,101297.22
2022-10-25T11:38:02.798Z,101297.66
2022-10-25T11:40:32.096Z,101292.66
2022-10-25T11:43:14.256Z,101298.25
2022-10-25T11:45:44.155Z,101295.34
2022-10-25T11:48:47.372Z,101297.47
2022-10-25T11:51:18.888Z,101296.22
2022-10-25T11:54:05.375Z,101294.78
2022-10-25T11:56:40.091Z,101293.81
2022-10-25T11:59:17.495Z,101296.28
2022-10-25T12:01:58.708Z,101296.13
2022-10-25T12:04:45.934Z,101291.31
2022-10-25T12:07:20.043Z,101291.47
2022-10-25T12:10:03.025Z,101285.78
2022-10-25T12:12:42.843Z,101286.50
2022-10-25T12:15:18.244Z,101288.25
2022-10-25T12:17:46.188Z,101294.63
2022-10-25T12:20:21.530Z,101300.53
2022-10-25T12:22:52.921Z,101298.47
2022-10-25T12:25:26.276Z,101289.31
2022-10-25T12:28:01.266Z,101300.06
2022-10-25T12:30:31.526Z,101294.53
2022-10-25T12:33:06.190Z,101288.81
2022-10-25T12:35:40.968Z,101289.69
2022-10-25T12:38:16.529Z,101285.03
2022-10-25T12:40:50.488Z,101285.75
2022-10-25T12:43:27.823Z,101291.28
2022-10-25T12:46:05.334Z,101286.78
2022-10-25T12:48:54.831Z,101291.44
2022-10-25T12:51:38.096Z,101284.00
2022-10-25T12:54:23.925Z,101285.91
2022-10-25T12:57:06.669Z,101279.50
2022-10-25T12:59:50.675Z,101285.22
2022-10-25T13:02:55.944Z,101282.94
2022-10-25T13:05:59.092Z,101273.94
2022-10-25T13:08:29.629Z,101272.03
2022-10-25T13:11:02.418Z,101267.06
2022-10-25T13:13:33.798Z,101274.34
2022-10-25T13:16:04.477Z,101274.34
2022-10-25T13:18:45.237Z,101274.19
2022-10-25T13:21:14.454Z,101277.09
2022-10-25T13:24:01.069Z,101281.59
2022-10-25T13:26:32.173Z,101275.00
2022-10-25T13:29:03.650Z,101277.78
2022-10-25T13:31:46.847Z,101286.94
2022-10-25T13:34:36.825Z,101274.34
2022-10-25T13:37:43.741Z,101273.63
2022-10-25T13:40:24.686Z,101274.34
2022-10-25T13:43:02.665Z,101271.56
2022-10-25T13:45:46.298Z,101270.56
2022-10-25T13:48:26.718Z,101278.84
2022-10-25T13:50:56.741Z,101274.50
2022-10-25T13:53:27.063Z,101277.25
2022-10-25T13:56:00.185Z,101279.88
2022-10-25T13:58:49.194Z,101285.53
2022-10-25T14:01:54.772Z,101286.56
2022-10-25T14:04:35.466Z,101283.81
2022-10-25T14:07:40.787Z,101288.47
2022-10-25T14:10:16.493Z,101284.66
2022-10-25T14:12:48.665Z,101285.69
2022-10-25T14:15:25.596Z,101284.66
2022-10-25T14:17:53.813Z,101290.19
2022-10-25T14:20:28.632Z,101290.91
2022-10-25T14:23:00.693Z,101280.88
2022-10-25T14:25:34.843Z,101285.69
2022-10-25T14:28:15.147Z,101286.56
2022-10-25T14:30:44.850Z,101283.09
2022-10-25T14:33:31.233Z,101277.72
2022-10-25T14:36:09.488Z,101271.19
2022-10-25T14:38:49.806Z,101277.91
2022-10-25T14:41:22.295Z,101280.47
2022-10-25T14:43:50.468Z,101279.09
2022-10-25T14:46:19.940Z,101276.88
2022-10-25T14:48:49.652Z,101267.72
2022-10-25T14:51:22.078Z,101269.44
2022-10-25T14:53:56.838Z,101265.84
2022-10-25T14:56:30.110Z,101264.97
2022-10-25T14:58:59.006Z,101260.47
2022-10-25T15:01:27.511Z,101266.00
2022-10-25T15:03:59.145Z,101260.47
2022-10-25T15:06:30.943Z,101264.97
2022-10-25T15:09:37.083Z,101259.75
2022-10-25T15:12:04.635Z,101255.09
2022-10-25T15:14:32.793Z,101250.75
2022-10-25T15:17:05.097Z,101247.84
2022-10-25T15:19:34.048Z,101248.31
2022-10-25T15:22:16.290Z,101250.75
2022-10-25T15:24:45.920Z,101245.00
2022-10-25T15:27:27.876Z,101242.94
2022-10-25T15:29:55.963Z,101242.53
2022-10-25T15:32:27.017Z,101241.34
2022-10-25T15:34:56.731Z,101246.16
2022-10-25T15:37:27.195Z,101243.59
2022-10-25T15:39:56.399Z,101247.38
2022-10-25T15:42:26.859Z,101244.63
2022-10-25T15:44:55.415Z,101244.06
2022-10-25T15:47:33.064Z,101250.28
2022-10-25T15:50:03.965Z,101247.84
2022-10-25T15:52:33.313Z,101248.00
2022-10-25T15:55:01.235Z,101251.97
2022-10-25T15:57:29.165Z,101243.69
2022-10-25T15:59:57.229Z,101249.34
2022-10-25T16:02:28.537Z,101241.06
2022-10-25T16:04:56.580Z,101240.53
2022-10-25T16:07:24.450Z,101235.88
2022-10-25T16:09:53.783Z,101233.09
2022-10-25T16:12:25.795Z,101230.50
2022-10-25T16:14:54.205Z,101232.00
2022-10-25T16:17:21.957Z,101232.00
2022-10-25T16:19:49.841Z,101236.81
2022-10-25T16:22:17.682Z,101218.72
2022-10-25T16:24:45.494Z,101223.50
2022-10-25T16:27:14.808Z,101220.91
2022-10-25T16:29:42.714Z,101219.66
2022-10-25T16:32:10.636Z,101215.47
2022-10-25T16:34:42.363Z,101224.09
2022-10-25T16:37:11.971Z,101224.56
2022-10-25T16:39:40.202Z,101226.59
2022-10-25T16:42:31.472Z,101222.28
2022-10-25T16:45:00.181Z,101228.25
2022-10-25T16:47:28.365Z,101230.47
2022-10-25T16:49:56.263Z,101225.13
2022-10-25T16:52:24.188Z,101225.41
2022-10-25T16:54:52.108Z,101222.13
2022-10-25T16:57:19.930Z,101211.41
2022-10-25T16:59:50.528Z,101212.41
2022-10-25T17:02:20.467Z,101211.84
2022-10-25T17:04:49.483Z,101205.91
2022-10-25T17:07:17.379Z,101210.91
2022-10-25T17:09:45.379Z,101206.69
2022-10-25T17:12:13.698Z,101208.75
2022-10-25T17:14:41.908Z,101208.34
2022-10-25T17:17:11.129Z,101208.66
2022-10-25T17:19:39.038Z,101211.00
2022-10-25T17:22:07.455Z,101207.69
2022-10-25T17:24:37.521Z,101206.28
2022-10-25T17:27:06.358Z,101206.44
2022-10-25T17:29:34.377Z,101201.41
2022-10-25T17:32:02.298Z,101206.19
2022-10-25T17:34:32.129Z,101203.44
2022-10-25T17:37:02.078Z,101204.94
2022-10-25T17:39:30.218Z,101202.47
2022-10-25T17:41:58.156Z,101201.88
2022-10-25T17:44:26.066Z,101193.09
2022-10-25T17:46:54.870Z,101194.25
2022-10-25T17:49:24.451Z,101189.91
2022-10-25T17:51:53.578Z,101194.53
2022-10-25T17:54:21.580Z,101195.88
2022-10-25T17:56:49.408Z,101199.66
2022-10-25T17:59:17.392Z,101199.81
2022-10-25T18:01:45.374Z,101199.09
2022-10-25T18:04:13.296Z,101205.63
2022-10-25T18:06:41.153Z,101199.41
2022-10-25T18:09:11.006Z,101197.53
2022-10-25T18:11:39.954Z,101197.97
2022-10-25T18:14:07.834Z,101192.63
2022-10-25T18:16:35.629Z,101194.66
2022-10-25T18:19:07.073Z,101202.06
2022-10-25T18:21:35.112Z,101204.19
2022-10-25T18:24:04.861Z,101205.22
2022-10-25T18:26:35.531Z,101200.03
2022-10-25T18:29:03.645Z,101204.94
2022-10-25T18:31:31.457Z,101203.38
2022-10-25T18:34:03.407Z,101195.28
2022-10-25T18:36:32.760Z,101194.69
2022-10-25T18:39:00.862Z,101193.81
2022-10-25T18:41:31.388Z,101197.44
2022-10-25T18:44:02.382Z,101196.56
2022-10-25T18:46:31.922Z,101197.03
2022-10-25T18:49:00.010Z,101199.94
2022-10-25T18:51:29.259Z,101206.47
2022-10-25T18:53:57.802Z,101200.41
2022-10-25T18:56:26.512Z,101205.91
2022-10-25T18:58:56.740Z,101203.28
2022-10-25T19:01:28.723Z,101199.69
2022-10-25T19:03:57.865Z,101193.72
2022-10-25T19:06:26.581Z,101195.63
2022-10-25T19:08:55.348Z,101194.06
2022-10-25T19:11:23.773Z,101194.19
2022-10-25T19:13:54.792Z,101186.06
2022-10-25T19:16:23.341Z,101190.16
2022-10-25T19:18:52.620Z,101176.69
2022-10-25T19:21:20.844Z,101174.22
2022-10-25T19:23:48.898Z,101180.03
2022-10-25T19:26:19.476Z,101178.44
2022-10-25T19:28:48.403Z,101174.97
2022-10-25T19:31:18.412Z,101170.66
2022-10-25T19:33:47.052Z,101180.06
2022-10-25T19:36:17.652Z,101167.47
2022-10-25T19:38:48.149Z,101174.09
2022-10-25T19:41:19.277Z,101178.91
2022-10-25T19:43:48.212Z,101175.44
2022-10-25T19:46:16.444Z,101171.22
2022-10-25T19:48:44.374Z,101175.91
2022-10-25T19:51:14.122Z,101166.78
2022-10-25T19:53:43.704Z,101168.78
2022-10-25T19:56:13.833Z,101169.81
2022-10-25T19:58:42.242Z,101168.34
2022-10-25T20:01:12.531Z,101167.66
2022-10-25T20:03:41.625Z,101171.56
2022-10-25T20:06:11.199Z,101177.16
2022-10-25T20:08:41.066Z,101169.22
2022-10-25T20:11:13.108Z,101172.97
2022-10-25T20:13:41.246Z,101167.16
2022-10-25T20:16:09.920Z,101160.84
2022-10-25T20:18:40.340Z,101157.22
2022-10-25T20:21:11.464Z,101170.22
2022-10-25T20:23:40.450Z,101160.25
2022-10-25T20:26:14.513Z,101163.00
2022-10-25T20:28:42.925Z,101162.56
2022-10-25T20:31:11.589Z,101161.53
2022-10-25T20:33:40.095Z,101152.59
2022-10-25T20:36:09.910Z,101151.56
2022-10-25T20:38:38.846Z,101156.34
2022-10-25T20:41:08.375Z,101155.47
2022-10-25T20:43:38.483Z,101152.88
2022-10-25T20:46:08.044Z,101158.50
2022-10-25T20:48:36.859Z,101154.31
2022-10-25T20:51:07.774Z,101149.09
2022-10-25T20:53:36.815Z,101149.09
2022-10-25T20:56:05.835Z,101147.50
2022-10-25T20:58:35.031Z,101146.81
2022-10-25T21:01:04.355Z,101149.69
2022-10-25T21:03:33.125Z,101145.34
2022-10-25T21:06:04.441Z,101147.22
2022-10-25T21:08:33.287Z,101147.53
2022-10-25T21:11:02.290Z,101148.41
2022-10-25T21:13:32.478Z,101144.78
2022-10-25T21:16:05.256Z,101143.03
2022-10-25T21:18:34.313Z,101145.59
2022-10-25T21:21:03.355Z,101139.84
2022-10-25T21:23:32.149Z,101135.06
2022-10-25T21:26:00.205Z,101125.97
2022-10-25T21:28:28.197Z,101130.59
2022-10-25T21:30:55.981Z,101131.59
2022-10-25T21:33:23.775Z,101125.22
2022-10-25T21:35:52.960Z,101115.09
2022-10-25T21:38:20.940Z,101118.16
2022-10-25T21:40:48.790Z,101115.28
2022-10-25T21:43:16.610Z,101120.91
2022-10-25T21:45:44.416Z,101113.69
2022-10-25T21:48:12.320Z,101106.44
2022-10-25T21:50:40.078Z,101112.81
2022-10-25T21:53:09.357Z,101110.94
2022-10-25T21:55:37.139Z,101121.19
2022-10-25T21:58:04.980Z,101117.56
2022-10-25T22:00:32.721Z,101112.06
2022-10-25T22:03:00.499Z,101113.94
2022-10-25T22:05:28.305Z,101114.97
2022-10-25T22:07:56.161Z,101105.84
2022-10-25T22:10:25.382Z,101109.31
2022-10-25T22:12:54.906Z,101107.59
2022-10-25T22:15:22.726Z,101110.47
2022-10-25T22:17:50.583Z,101108.75
2022-10-25T22:20:18.514Z,101109.63
2022-10-25T22:22:46.603Z,101108.75
2022-10-25T22:25:14.781Z,101109.91
2022-10-25T22:30:18.294Z,101108.31
2022-10-25T22:32:46.271Z,101104.00
2022-10-25T22:35:14.533Z,101103.13
2022-10-25T22:37:42.293Z,101106.88
2022-10-25T22:40:10.971Z,101109.63
2022-10-25T22:42:38.709Z,101107.16
2022-10-25T22:45:09.029Z,101099.78
2022-10-25T22:47:36.800Z,101099.91
2022-10-25T22:50:04.740Z,101099.91
2022-10-25T22:52:32.652Z,101099.91
2022-10-25T22:55:00.495Z,101102.78
2022-10-25T22:57:30.841Z,101104.69
2022-10-25T22:59:58.627Z,101105.84
2022-10-25T23:02:27.730Z,101095.72
2022-10-25T23:04:55.482Z,101096.00
2022-10-25T23:07:23.285Z,101095.13
2022-10-25T23:09:51.060Z,101091.66
2022-10-25T23:12:18.842Z,101099.91
2022-10-25T23:14:46.656Z,101087.16
2022-10-25T23:17:14.474Z,101098.31
2022-10-25T23:19:43.612Z,101106.56
2022-10-25T23:22:11.449Z,101095.59
2022-10-25T23:24:39.172Z,101100.19
2022-10-25T23:27:06.994Z,101094.72
2022-10-25T23:29:34.871Z,101096.59
2022-10-25T23:32:02.634Z,101107.56
2022-10-25T23:34:32.150Z,101096.59
2022-10-25T23:37:01.343Z,101092.84
2022-10-25T23:39:29.128Z,101084.72
2022-10-25T23:41:57.605Z,101091.09
2022-10-25T23:44:25.460Z,101088.47
2022-10-25T23:46:53.197Z,101092.09
2022-10-25T23:49:20.956Z,101083.88
2022-10-25T23:51:48.721Z,101076.50
2022-10-25T23:54:17.904Z,101073.63
2022-10-25T23:56:45.667Z,101067.38
2022-10-25T23:59:13.484Z,101061.75
